createdAt,value
2019-03-20T00:02:07.585Z,102036.00
2019-03-20T00:04:49.349Z,102027.00
2019-03-20T00:07:14.467Z,102022.00
2019-03-20T00:09:47.449Z,102023.00
2019-03-20T00:12:19.990Z,102020.00
2019-03-20T00:14:52.944Z,102024.00
2019-03-20T00:17:25.474Z,102016.00
2019-03-20T00:19:58.342Z,102022.00
2019-03-20T00:22:31.050Z,102012.00
2019-03-20T00:25:03.797Z,102012.00
2019-03-20T00:27:36.722Z,102016.00
2019-03-20T00:30:14.324Z,102009.00
2019-03-20T00:32:47.504Z,102018.00
2019-03-20T00:35:20.246Z,102010.00
2019-03-20T00:37:52.815Z,102004.00
2019-03-20T00:40:25.773Z,102005.00
2019-03-20T00:42:58.669Z,102003.00
2019-03-20T00:45:31.508Z,102006.00
2019-03-20T00:48:04.923Z,102004.00
2019-03-20T00:50:39.162Z,101994.00
2019-03-20T00:53:11.819Z,101986.00
2019-03-20T00:55:47.721Z,101983.00
2019-03-20T00:58:20.883Z,101995.00
2019-03-20T01:00:53.938Z,101993.00
2019-03-20T01:03:27.734Z,101989.00
2019-03-20T01:06:00.733Z,101981.00
2019-03-20T01:08:33.803Z,101971.00
2019-03-20T01:11:06.698Z,101972.00
2019-03-20T01:13:40.609Z,101966.00
2019-03-20T01:16:13.521Z,101972.00
2019-03-20T01:18:46.423Z,101969.00
2019-03-20T01:21:20.505Z,101972.00
2019-03-20T01:23:53.029Z,101968.00
2019-03-20T01:26:25.959Z,101957.00
2019-03-20T01:28:59.086Z,101947.00
2019-03-20T01:31:31.943Z,101950.00
2019-03-20T01:34:04.821Z,101956.00
2019-03-20T01:36:37.595Z,101939.00
2019-03-20T01:39:10.752Z,101939.00
2019-03-20T01:41:43.435Z,101930.00
2019-03-20T01:44:16.162Z,101935.00
2019-03-20T01:46:49.165Z,101944.00
2019-03-20T01:49:22.050Z,101936.00
2019-03-20T01:51:55.145Z,101938.00
2019-03-20T01:54:27.881Z,101929.00
2019-03-20T01:57:01.891Z,101949.00
2019-03-20T01:59:34.655Z,101940.00
2019-03-20T02:02:08.315Z,101936.00
2019-03-20T02:04:41.079Z,101937.00
2019-03-20T02:07:13.858Z,101935.00
2019-03-20T02:09:46.915Z,101932.00
2019-03-20T02:12:19.374Z,101925.00
2019-03-20T02:14:52.456Z,101923.00
2019-03-20T02:17:25.171Z,101918.00
2019-03-20T02:19:59.168Z,101915.00
2019-03-20T02:22:31.965Z,101891.00
2019-03-20T02:25:05.163Z,101913.00
2019-03-20T02:27:39.086Z,101902.00
2019-03-20T02:30:17.942Z,101887.00
2019-03-20T02:32:50.687Z,101885.00
2019-03-20T02:35:23.608Z,101915.00
2019-03-20T02:37:56.449Z,101882.00
2019-03-20T02:40:30.445Z,101892.00
2019-03-20T02:43:03.452Z,101881.00
2019-03-20T02:45:36.181Z,101881.00
2019-03-20T02:48:09.630Z,101882.00
2019-03-20T02:50:43.347Z,101880.00
2019-03-20T02:53:16.613Z,101877.00
2019-03-20T02:55:50.284Z,101873.00
2019-03-20T02:58:23.774Z,101878.00
2019-03-20T03:00:57.265Z,101916.00
2019-03-20T03:03:30.629Z,101903.00
2019-03-20T03:06:07.054Z,101852.00
2019-03-20T03:08:38.512Z,101896.00
2019-03-20T03:11:12.420Z,101876.00
2019-03-20T03:13:45.577Z,101870.00
2019-03-20T03:16:18.925Z,101870.00
2019-03-20T03:18:52.414Z,101869.00
2019-03-20T03:21:26.290Z,101872.00
2019-03-20T03:24:01.243Z,101879.00
2019-03-20T03:26:34.445Z,101875.00
2019-03-20T03:29:07.464Z,101885.00
2019-03-20T03:31:40.364Z,101891.00
2019-03-20T03:34:13.092Z,101890.00
2019-03-20T03:36:45.801Z,101882.00
2019-03-20T03:39:18.562Z,101888.00
2019-03-20T03:41:52.257Z,101881.00
2019-03-20T03:44:25.009Z,101882.00
2019-03-20T03:46:57.933Z,101885.00
2019-03-20T03:49:30.737Z,101886.00
2019-03-20T03:52:03.701Z,101896.00
2019-03-20T03:54:36.517Z,101890.00
2019-03-20T03:57:09.267Z,101885.00
2019-03-20T03:59:42.331Z,101882.00
2019-03-20T04:02:15.029Z,101886.00
2019-03-20T04:04:49.859Z,101888.00
2019-03-20T04:07:23.785Z,101887.00
2019-03-20T04:09:56.783Z,101887.00
2019-03-20T04:12:29.435Z,101889.00
2019-03-20T04:15:02.819Z,101889.00
2019-03-20T04:17:35.816Z,101883.00
2019-03-20T04:20:11.053Z,101883.00
2019-03-20T04:22:43.834Z,101889.00
2019-03-20T04:25:16.772Z,101894.00
2019-03-20T04:27:50.486Z,101897.00
2019-03-20T04:30:23.124Z,101899.00
2019-03-20T04:32:56.137Z,101897.00
2019-03-20T04:35:29.099Z,101894.00
2019-03-20T04:38:03.403Z,101897.00
2019-03-20T04:40:36.206Z,101900.00
2019-03-20T04:43:09.522Z,101897.00
2019-03-20T04:45:42.126Z,101895.00
2019-03-20T04:48:15.138Z,101893.00
2019-03-20T04:50:47.968Z,101904.00
2019-03-20T04:53:20.714Z,101888.00
2019-03-20T04:55:54.782Z,101900.00
2019-03-20T04:58:27.490Z,101895.00
2019-03-20T05:01:00.667Z,101897.00
2019-03-20T05:03:33.436Z,101892.00
2019-03-20T05:06:06.433Z,101902.00
2019-03-20T05:08:39.258Z,101908.00
2019-03-20T05:11:13.182Z,101901.00
2019-03-20T05:13:45.830Z,101903.00
2019-03-20T05:16:18.794Z,101911.00
2019-03-20T05:18:52.025Z,101908.00
2019-03-20T05:21:24.976Z,101916.00
2019-03-20T05:23:57.690Z,101912.00
2019-03-20T05:26:30.760Z,101915.00
2019-03-20T05:29:03.533Z,101910.00
2019-03-20T05:31:36.415Z,101910.00
2019-03-20T05:34:09.121Z,101913.00
2019-03-20T05:36:42.264Z,101912.00
2019-03-20T05:39:15.953Z,101916.00
2019-03-20T05:41:49.054Z,101918.00
2019-03-20T05:44:22.138Z,101918.00
2019-03-20T05:46:54.866Z,101917.00
2019-03-20T05:49:28.637Z,101921.00
2019-03-20T05:52:01.603Z,101925.00
2019-03-20T05:54:35.684Z,101924.00
2019-03-20T05:57:08.539Z,101925.00
2019-03-20T05:59:41.650Z,101928.00
2019-03-20T06:02:14.660Z,101925.00
2019-03-20T06:04:48.811Z,101926.00
2019-03-20T06:07:22.048Z,101925.00
2019-03-20T06:09:56.013Z,101922.00
2019-03-20T06:12:28.838Z,101918.00
2019-03-20T06:15:01.548Z,101930.00
2019-03-20T06:17:33.951Z,101929.00
2019-03-20T06:20:07.801Z,101930.00
2019-03-20T06:22:40.577Z,101930.00
2019-03-20T06:25:15.145Z,101942.00
2019-03-20T06:27:48.099Z,101942.00
2019-03-20T06:30:24.260Z,101938.00
2019-03-20T06:32:57.022Z,101950.00
2019-03-20T06:35:29.782Z,101945.00
2019-03-20T06:38:02.720Z,101951.00
2019-03-20T06:40:35.230Z,101957.00
2019-03-20T06:43:08.057Z,101959.00
2019-03-20T06:45:40.943Z,101958.00
2019-03-20T06:48:13.683Z,101952.00
2019-03-20T06:50:46.390Z,101949.00
2019-03-20T06:53:19.088Z,101954.00
2019-03-20T06:55:51.992Z,101960.00
2019-03-20T06:58:26.356Z,101958.00
2019-03-20T07:01:01.550Z,101967.00
2019-03-20T07:04:04.267Z,101967.00
2019-03-20T07:06:44.750Z,101973.00
2019-03-20T07:09:41.690Z,101974.00
2019-03-20T07:12:14.520Z,101973.00
2019-03-20T07:14:47.413Z,101982.00
2019-03-20T07:17:20.060Z,101987.00
2019-03-20T07:19:52.855Z,101972.00
2019-03-20T07:22:25.905Z,101984.00
2019-03-20T07:24:58.680Z,101977.00
2019-03-20T07:27:32.024Z,101979.00
2019-03-20T07:30:04.926Z,101988.00
2019-03-20T07:32:39.745Z,101994.00
2019-03-20T07:35:12.956Z,102001.00
2019-03-20T07:37:55.619Z,102002.00
2019-03-20T07:40:20.937Z,101999.00
2019-03-20T07:42:54.344Z,102001.00
2019-03-20T07:45:27.216Z,102000.00
2019-03-20T07:48:00.109Z,102009.00
2019-03-20T07:50:33.065Z,102010.00
2019-03-20T07:53:06.870Z,102014.00
2019-03-20T07:55:39.762Z,102021.00
2019-03-20T07:58:13.781Z,102020.00
2019-03-20T08:00:46.559Z,102022.00
2019-03-20T08:03:20.714Z,102029.00
2019-03-20T08:05:53.111Z,102048.00
2019-03-20T08:08:25.877Z,102048.00
2019-03-20T08:11:00.005Z,102047.00
2019-03-20T08:13:32.477Z,102043.00
2019-03-20T08:16:24.379Z,102045.00
2019-03-20T08:18:57.624Z,102039.00
2019-03-20T08:21:31.948Z,102039.00
2019-03-20T08:24:04.838Z,102040.00
2019-03-20T08:26:37.924Z,102045.00
2019-03-20T08:29:10.720Z,102049.00
2019-03-20T08:31:43.730Z,102042.00
2019-03-20T08:34:16.578Z,102050.00
2019-03-20T08:36:49.915Z,102042.00
2019-03-20T08:39:22.678Z,102044.00
2019-03-20T08:41:55.509Z,102046.00
2019-03-20T08:44:28.311Z,102045.00
2019-03-20T08:47:01.190Z,102052.00
2019-03-20T08:49:34.279Z,102052.00
2019-03-20T08:52:07.932Z,102053.00
2019-03-20T08:54:40.672Z,102058.00
2019-03-20T08:57:13.712Z,102063.00
2019-03-20T08:59:48.308Z,102066.00
2019-03-20T09:02:21.415Z,102073.00
2019-03-20T09:04:54.945Z,102061.00
2019-03-20T09:07:27.802Z,102063.00
2019-03-20T09:10:00.962Z,102064.00
2019-03-20T09:12:33.823Z,102066.00
2019-03-20T09:15:08.033Z,102077.00
2019-03-20T09:17:40.942Z,102080.00
2019-03-20T09:20:15.809Z,102086.00
2019-03-20T09:22:49.100Z,102078.00
2019-03-20T09:25:28.561Z,102078.00
2019-03-20T09:28:01.347Z,102075.00
2019-03-20T09:30:53.159Z,102076.00
2019-03-20T09:33:26.213Z,102071.00
2019-03-20T09:35:59.072Z,102075.00
2019-03-20T09:38:42.724Z,102073.00
2019-03-20T09:41:06.034Z,102075.00
2019-03-20T09:43:38.769Z,102076.00
2019-03-20T09:46:11.689Z,102085.00
2019-03-20T09:48:44.712Z,102080.00
2019-03-20T09:51:17.459Z,102085.00
2019-03-20T09:53:50.437Z,102078.00
2019-03-20T09:56:23.323Z,102077.00
2019-03-20T09:58:56.421Z,102085.00
2019-03-20T10:01:29.675Z,102090.00
2019-03-20T10:04:02.385Z,102095.00
2019-03-20T10:06:35.522Z,102086.00
2019-03-20T10:09:09.515Z,102096.00
2019-03-20T10:11:42.128Z,102090.00
2019-03-20T10:14:14.704Z,102088.00
2019-03-20T10:16:47.555Z,102093.00
2019-03-20T10:19:21.301Z,102098.00
2019-03-20T10:21:53.968Z,102094.00
2019-03-20T10:24:26.770Z,102096.00
2019-03-20T10:26:59.490Z,102089.00
2019-03-20T10:29:32.685Z,102089.00
2019-03-20T10:32:05.569Z,102092.00
2019-03-20T10:34:39.605Z,102097.00
2019-03-20T10:37:12.306Z,102095.00
2019-03-20T10:39:45.190Z,102102.00
2019-03-20T10:42:18.724Z,102091.00
2019-03-20T10:44:51.501Z,102101.00
2019-03-20T10:47:24.217Z,102104.00
2019-03-20T10:49:57.149Z,102098.00
2019-03-20T10:52:29.950Z,102101.00
2019-03-20T10:55:02.802Z,102092.00
2019-03-20T10:57:35.527Z,102102.00
2019-03-20T11:00:11.243Z,102099.00
2019-03-20T11:02:43.958Z,102100.00
2019-03-20T11:05:17.460Z,102103.00
2019-03-20T11:07:50.155Z,102105.00
2019-03-20T11:10:29.965Z,102102.00
2019-03-20T11:13:02.667Z,102093.00
2019-03-20T11:15:35.681Z,102095.00
2019-03-20T11:18:08.410Z,102091.00
2019-03-20T11:20:44.263Z,102095.00
2019-03-20T11:23:17.067Z,102103.00
2019-03-20T11:25:50.040Z,102098.00
2019-03-20T11:28:22.828Z,102098.00
2019-03-20T11:30:55.627Z,102100.00
2019-03-20T11:33:28.620Z,102103.00
2019-03-20T11:36:01.602Z,102108.00
2019-03-20T11:38:35.033Z,102101.00
2019-03-20T11:41:08.538Z,102098.00
2019-03-20T11:43:41.457Z,102103.00
2019-03-20T11:46:14.360Z,102112.00
2019-03-20T11:48:47.136Z,102100.00
2019-03-20T11:51:20.186Z,102105.00
2019-03-20T11:53:52.918Z,102106.00
2019-03-20T11:56:25.976Z,102103.00
2019-03-20T11:58:59.067Z,102106.00
2019-03-20T12:01:32.046Z,102102.00
2019-03-20T12:04:06.275Z,102099.00
2019-03-20T12:06:39.188Z,102100.00
2019-03-20T12:09:12.476Z,102099.00
2019-03-20T12:11:46.249Z,102101.00
2019-03-20T12:14:18.909Z,102095.00
2019-03-20T12:16:51.892Z,102103.00
2019-03-20T12:19:24.706Z,102102.00
2019-03-20T12:21:57.289Z,102103.00
2019-03-20T12:24:30.341Z,102091.00
2019-03-20T12:27:14.230Z,102101.00
2019-03-20T12:29:37.398Z,102090.00
2019-03-20T12:32:10.170Z,102096.00
2019-03-20T12:34:43.253Z,102097.00
2019-03-20T12:37:15.934Z,102087.00
2019-03-20T12:39:53.125Z,102096.00
2019-03-20T12:42:22.911Z,102095.00
2019-03-20T12:44:55.820Z,102097.00
2019-03-20T12:47:28.622Z,102096.00
2019-03-20T12:50:01.277Z,102093.00
2019-03-20T12:52:34.230Z,102099.00
2019-03-20T12:55:08.285Z,102090.00
2019-03-20T12:57:41.225Z,102093.00
2019-03-20T13:00:18.799Z,102087.00
2019-03-20T13:02:52.301Z,102092.00
2019-03-20T13:05:26.086Z,102089.00
2019-03-20T13:08:05.510Z,102091.00
2019-03-20T13:10:33.021Z,102097.00
2019-03-20T13:13:06.009Z,102088.00
2019-03-20T13:15:38.571Z,102092.00
2019-03-20T13:18:11.573Z,102090.00
2019-03-20T13:20:44.129Z,102080.00
2019-03-20T13:23:24.388Z,102085.00
2019-03-20T13:25:56.996Z,102088.00
2019-03-20T13:28:29.825Z,102080.00
2019-03-20T13:31:13.740Z,102082.00
2019-03-20T13:33:46.433Z,102079.00
2019-03-20T13:36:19.204Z,102077.00
2019-03-20T13:38:51.958Z,102081.00
2019-03-20T13:41:24.573Z,102079.00
2019-03-20T13:43:57.434Z,102089.00
2019-03-20T13:46:30.127Z,102086.00
2019-03-20T13:49:02.866Z,102083.00
2019-03-20T13:51:35.890Z,102086.00
2019-03-20T13:54:08.877Z,102096.00
2019-03-20T13:56:41.428Z,102088.00
2019-03-20T13:59:14.233Z,102090.00
2019-03-20T14:01:47.010Z,102091.00
2019-03-20T14:04:19.445Z,102094.00
2019-03-20T14:06:52.514Z,102099.00
2019-03-20T14:09:25.279Z,102100.00
2019-03-20T14:11:58.127Z,102084.00
2019-03-20T14:14:30.724Z,102090.00
2019-03-20T14:17:03.345Z,102083.00
2019-03-20T14:19:36.081Z,102082.00
2019-03-20T14:22:08.835Z,102082.00
2019-03-20T14:24:43.961Z,102082.00
2019-03-20T14:27:15.509Z,102090.00
2019-03-20T14:29:48.280Z,102088.00
2019-03-20T14:32:20.997Z,102087.00
2019-03-20T14:34:53.829Z,102082.00
2019-03-20T14:37:26.682Z,102088.00
2019-03-20T14:39:59.413Z,102087.00
2019-03-20T14:42:32.025Z,102073.00
2019-03-20T14:45:04.945Z,102077.00
2019-03-20T14:47:42.101Z,102083.00
2019-03-20T14:50:28.763Z,102077.00
2019-03-20T14:53:01.510Z,102074.00
2019-03-20T14:55:34.263Z,102075.00
2019-03-20T14:58:07.746Z,102069.00
2019-03-20T15:00:40.464Z,102076.00
2019-03-20T15:03:13.302Z,102075.00
2019-03-20T15:05:46.001Z,102078.00
2019-03-20T15:08:18.830Z,102071.00
2019-03-20T15:10:51.563Z,102071.00
2019-03-20T15:13:24.314Z,102068.00
2019-03-20T15:16:03.140Z,102078.00
2019-03-20T15:18:35.851Z,102071.00
2019-03-20T15:21:10.435Z,102065.00
2019-03-20T15:23:43.051Z,102069.00
2019-03-20T15:26:15.697Z,102063.00
2019-03-20T15:28:48.658Z,102074.00
2019-03-20T15:31:21.686Z,102071.00
2019-03-20T15:33:54.323Z,102074.00
2019-03-20T15:36:27.396Z,102080.00
2019-03-20T15:38:59.983Z,102071.00
2019-03-20T15:41:33.264Z,102076.00
2019-03-20T15:44:05.910Z,102081.00
2019-03-20T15:46:38.646Z,102075.00
2019-03-20T15:49:11.287Z,102065.00
2019-03-20T15:51:43.944Z,102074.00
2019-03-20T15:54:18.101Z,102066.00
2019-03-20T15:56:50.634Z,102068.00
2019-03-20T15:59:23.493Z,102063.00
2019-03-20T16:01:56.431Z,102068.00
2019-03-20T16:04:30.141Z,102057.00
2019-03-20T16:07:02.805Z,102062.00
2019-03-20T16:09:35.635Z,102063.00
2019-03-20T16:12:08.351Z,102062.00
2019-03-20T16:14:42.003Z,102057.00
2019-03-20T16:17:14.770Z,102056.00
2019-03-20T16:19:47.719Z,102056.00
2019-03-20T16:22:20.297Z,102057.00
2019-03-20T16:24:53.904Z,102065.00
2019-03-20T16:27:26.588Z,102052.00
2019-03-20T16:29:59.358Z,102045.00
2019-03-20T16:32:32.155Z,102058.00
2019-03-20T16:35:06.189Z,102050.00
2019-03-20T16:37:38.841Z,102056.00
2019-03-20T16:40:13.494Z,102053.00
2019-03-20T16:42:46.253Z,102056.00
2019-03-20T16:45:29.545Z,102057.00
2019-03-20T16:48:02.251Z,102053.00
2019-03-20T16:50:35.071Z,102058.00
2019-03-20T16:53:07.623Z,102059.00
2019-03-20T16:55:40.273Z,102064.00
2019-03-20T16:58:13.091Z,102054.00
2019-03-20T17:00:45.760Z,102058.00
2019-03-20T17:03:18.328Z,102060.00
2019-03-20T17:05:51.313Z,102060.00
2019-03-20T17:08:23.937Z,102054.00
2019-03-20T17:10:56.805Z,102062.00
2019-03-20T17:13:29.357Z,102060.00
2019-03-20T17:16:02.364Z,102053.00
2019-03-20T17:18:35.031Z,102050.00
2019-03-20T17:21:07.482Z,102046.00
2019-03-20T17:23:40.423Z,102043.00
2019-03-20T17:26:13.180Z,102049.00
2019-03-20T17:28:45.620Z,102043.00
2019-03-20T17:31:18.392Z,102053.00
2019-03-20T17:33:51.090Z,102043.00
2019-03-20T17:36:24.078Z,102052.00
2019-03-20T17:38:56.737Z,102044.00
2019-03-20T17:41:36.592Z,102052.00
2019-03-20T17:44:03.848Z,102052.00
2019-03-20T17:46:36.871Z,102051.00
2019-03-20T17:49:09.443Z,102052.00
2019-03-20T17:51:41.978Z,102056.00
2019-03-20T17:54:14.594Z,102057.00
2019-03-20T17:56:47.287Z,102062.00
2019-03-20T17:59:19.943Z,102059.00
2019-03-20T18:01:52.519Z,102062.00
2019-03-20T18:04:25.336Z,102056.00
2019-03-20T18:06:57.748Z,102058.00
2019-03-20T18:09:30.487Z,102063.00
2019-03-20T18:12:03.534Z,102061.00
2019-03-20T18:14:36.232Z,102072.00
2019-03-20T18:17:09.024Z,102076.00
2019-03-20T18:19:41.545Z,102075.00
2019-03-20T18:22:14.355Z,102073.00
2019-03-20T18:24:46.983Z,102081.00
2019-03-20T18:27:19.897Z,102084.00
2019-03-20T18:29:52.407Z,102085.00
2019-03-20T18:32:25.220Z,102093.00
2019-03-20T18:34:57.872Z,102102.00
2019-03-20T18:37:31.403Z,102105.00
2019-03-20T18:40:04.353Z,102107.00
2019-03-20T18:42:37.306Z,102108.00
2019-03-20T18:45:13.304Z,102105.00
2019-03-20T18:47:46.064Z,102114.00
2019-03-20T18:50:20.220Z,102114.00
2019-03-20T18:52:52.853Z,102118.00
2019-03-20T18:55:26.557Z,102116.00
2019-03-20T18:57:59.116Z,102117.00
2019-03-20T19:00:33.699Z,102127.00
2019-03-20T19:03:08.572Z,102128.00
2019-03-20T19:05:43.573Z,102126.00
2019-03-20T19:08:16.376Z,102134.00
2019-03-20T19:10:49.263Z,102145.00
2019-03-20T19:13:24.297Z,102143.00
2019-03-20T19:15:56.314Z,102139.00
2019-03-20T19:18:28.878Z,102140.00
2019-03-20T19:21:03.416Z,102154.00
2019-03-20T19:23:35.694Z,102151.00
2019-03-20T19:26:08.636Z,102147.00
2019-03-20T19:28:41.266Z,102159.00
2019-03-20T19:31:14.200Z,102153.00
2019-03-20T19:33:46.805Z,102156.00
2019-03-20T19:36:19.727Z,102154.00
2019-03-20T19:38:52.236Z,102155.00
2019-03-20T19:41:25.222Z,102161.00
2019-03-20T19:43:58.348Z,102162.00
2019-03-20T19:46:31.907Z,102157.00
2019-03-20T19:49:04.574Z,102158.00
2019-03-20T19:51:37.435Z,102170.00
2019-03-20T19:54:11.402Z,102170.00
2019-03-20T19:56:44.005Z,102162.00
2019-03-20T19:59:16.841Z,102172.00
2019-03-20T20:01:49.446Z,102177.00
2019-03-20T20:04:22.210Z,102185.00
2019-03-20T20:06:55.062Z,102185.00
2019-03-20T20:09:28.061Z,102185.00
2019-03-20T20:12:00.770Z,102174.00
2019-03-20T20:14:33.486Z,102188.00
2019-03-20T20:17:06.138Z,102184.00
2019-03-20T20:19:38.897Z,102185.00
2019-03-20T20:22:11.600Z,102173.00
2019-03-20T20:24:44.356Z,102172.00
2019-03-20T20:27:17.058Z,102176.00
2019-03-20T20:29:49.780Z,102181.00
2019-03-20T20:32:22.412Z,102177.00
2019-03-20T20:34:55.402Z,102187.00
2019-03-20T20:37:27.884Z,102179.00
2019-03-20T20:40:00.707Z,102182.00
2019-03-20T20:42:42.537Z,102190.00
2019-03-20T20:45:08.647Z,102192.00
2019-03-20T20:47:41.357Z,102188.00
2019-03-20T20:50:15.180Z,102191.00
2019-03-20T20:52:48.039Z,102202.00
2019-03-20T20:55:22.431Z,102204.00
2019-03-20T20:57:55.149Z,102196.00
2019-03-20T21:00:32.957Z,102200.00
2019-03-20T21:03:06.046Z,102205.00
2019-03-20T21:05:39.061Z,102202.00
2019-03-20T21:08:11.566Z,102201.00
2019-03-20T21:10:46.705Z,102199.00
2019-03-20T21:13:19.415Z,102203.00
2019-03-20T21:15:52.308Z,102204.00
2019-03-20T21:18:46.692Z,102208.00
2019-03-20T21:21:19.690Z,102217.00
2019-03-20T21:24:13.555Z,102210.00
2019-03-20T21:26:57.326Z,102208.00
2019-03-20T21:30:04.034Z,102214.00
2019-03-20T21:32:42.122Z,102217.00
2019-03-20T21:35:50.496Z,102211.00
2019-03-20T21:38:21.098Z,102223.00
2019-03-20T21:40:58.331Z,102230.00
2019-03-20T21:43:51.235Z,102221.00
2019-03-20T21:46:28.971Z,102232.00
2019-03-20T21:49:01.824Z,102219.00
2019-03-20T21:51:34.454Z,102226.00
2019-03-20T21:54:30.770Z,102224.00
2019-03-20T21:57:16.990Z,102219.00
2019-03-20T22:00:13.911Z,102224.00
2019-03-20T22:02:47.615Z,102227.00
2019-03-20T22:05:41.822Z,102228.00
2019-03-20T22:08:14.879Z,102229.00
2019-03-20T22:11:22.073Z,102227.00
2019-03-20T22:13:56.329Z,102220.00
2019-03-20T22:16:36.876Z,102219.00
2019-03-20T22:19:17.445Z,102225.00
2019-03-20T22:21:58.579Z,102220.00
2019-03-20T22:24:41.813Z,102222.00
2019-03-20T22:27:31.809Z,102217.00
2019-03-20T22:30:04.356Z,102209.00
2019-03-20T22:32:56.940Z,102215.00
2019-03-20T22:35:31.641Z,102216.00
2019-03-20T22:38:06.009Z,102219.00
2019-03-20T22:40:46.838Z,102210.00
2019-03-20T22:43:30.100Z,102217.00
2019-03-20T22:46:16.774Z,102221.00
2019-03-20T22:49:12.028Z,102225.00
2019-03-20T22:52:12.133Z,102220.00
2019-03-20T22:55:06.000Z,102227.00
2019-03-20T22:57:53.290Z,102225.00
2019-03-20T23:00:27.272Z,102222.00
2019-03-20T23:03:06.236Z,102230.00
2019-03-20T23:05:38.824Z,102233.00
2019-03-20T23:08:16.589Z,102240.00
2019-03-20T23:10:51.207Z,102238.00
2019-03-20T23:13:24.231Z,102240.00
2019-03-20T23:15:56.951Z,102237.00
2019-03-20T23:18:30.817Z,102237.00
2019-03-20T23:21:03.907Z,102227.00
2019-03-20T23:23:36.877Z,102229.00
2019-03-20T23:26:09.234Z,102234.00
2019-03-20T23:28:42.387Z,102225.00
2019-03-20T23:31:15.071Z,102221.00
2019-03-20T23:33:48.071Z,102224.00
2019-03-20T23:36:21.704Z,102225.00
2019-03-20T23:38:54.361Z,102234.00
2019-03-20T23:41:27.812Z,102232.00
2019-03-20T23:44:00.593Z,102223.00
2019-03-20T23:46:33.197Z,102216.00
2019-03-20T23:49:14.327Z,102219.00
2019-03-20T23:51:47.109Z,102221.00
2019-03-20T23:54:22.178Z,102223.00
2019-03-20T23:56:54.921Z,102222.00
2019-03-20T23:59:27.278Z,102216.00
